Terminal Aerodrome Forecast
Issued by NWS

Home | Current Version | Previous Version | Text Only | Print | Product List | Glossary On
Versions: 1 2 3 4 5 6 7 8 9 10 11 12 13 14 15 16 17 18 19 20 21 22 23 24
000
FTUS41 KCLE 232333
TAFFDY
TAF
KFDY 232333Z 2400/2424 28015G30KT P6SM OVC015
     FM240600 30011G20KT P6SM OVC015
     FM240900 30008KT P6SM OVC015
     FM241600 29007KT P6SM OVC020=

USA.gov is the U.S. government's official web portal to all federal, state and local government web resources and services.